createdAt,value
2019-05-21T00:00:41.438Z,14.87
2019-05-21T00:01:41.421Z,14.89
2019-05-21T00:02:41.428Z,14.85
2019-05-21T00:03:41.399Z,14.90
2019-05-21T00:04:41.410Z,14.86
2019-05-21T00:05:41.353Z,14.81
2019-05-21T00:06:41.947Z,14.79
2019-05-21T00:07:42.308Z,14.77
2019-05-21T00:08:41.354Z,14.78
2019-05-21T00:09:41.303Z,14.79
2019-05-21T00:10:41.338Z,14.78
2019-05-21T00:11:41.333Z,14.78
2019-05-21T00:13:02.549Z,14.78
2019-05-21T00:13:41.299Z,14.78
2019-05-21T00:15:02.316Z,14.79
2019-05-21T00:15:41.500Z,14.79
2019-05-21T00:16:49.471Z,14.79
2019-05-21T00:17:41.872Z,14.79
2019-05-21T00:18:41.179Z,14.77
2019-05-21T00:19:42.979Z,14.73
2019-05-21T00:20:41.490Z,14.74
2019-05-21T00:21:41.148Z,14.79
2019-05-21T00:22:41.144Z,14.79
2019-05-21T00:23:41.196Z,14.78
2019-05-21T00:24:41.119Z,14.77
2019-05-21T00:27:15.920Z,14.77
2019-05-21T00:28:16.154Z,14.71
2019-05-21T00:29:15.398Z,14.73
2019-05-21T00:30:15.540Z,14.74
2019-05-21T00:31:15.335Z,14.74
2019-05-21T00:32:14.588Z,14.78
2019-05-21T00:33:14.575Z,14.78
2019-05-21T00:34:14.571Z,14.81
2019-05-21T00:35:14.556Z,14.74
2019-05-21T00:36:14.535Z,14.74
2019-05-21T00:37:14.560Z,14.74
2019-05-21T00:38:14.510Z,14.73
2019-05-21T00:39:15.370Z,14.71
2019-05-21T00:40:14.486Z,14.71
2019-05-21T00:41:14.534Z,14.70
2019-05-21T00:42:14.460Z,14.63
2019-05-21T00:43:14.440Z,14.59
2019-05-21T00:44:15.356Z,14.55
2019-05-21T00:45:14.414Z,14.52
2019-05-21T00:46:14.400Z,14.49
2019-05-21T00:47:14.390Z,14.49
2019-05-21T00:48:14.394Z,14.45
2019-05-21T00:49:14.378Z,14.43
2019-05-21T00:50:16.355Z,14.48
2019-05-21T00:51:14.351Z,14.44
2019-05-21T00:52:14.344Z,14.45
2019-05-21T00:53:18.334Z,14.48
2019-05-21T00:54:16.531Z,14.51
2019-05-21T00:55:14.278Z,14.49
2019-05-21T00:56:15.820Z,14.49
2019-05-21T00:57:14.265Z,14.49
2019-05-21T00:58:18.863Z,14.48
2019-05-21T00:59:14.286Z,14.49
2019-05-21T01:00:14.324Z,14.44
2019-05-21T01:01:29.522Z,14.40
2019-05-21T01:02:19.050Z,14.37
2019-05-21T01:03:15.214Z,14.38
2019-05-21T01:04:14.304Z,14.34
2019-05-21T01:05:15.016Z,14.31
2019-05-21T01:06:16.761Z,14.33
2019-05-21T01:07:14.168Z,14.30
2019-05-21T01:08:14.856Z,14.28
2019-05-21T01:09:16.832Z,14.28
2019-05-21T01:10:15.574Z,14.25
2019-05-21T01:11:14.059Z,14.25
2019-05-21T01:12:14.040Z,14.28
2019-05-21T01:13:14.830Z,14.22
2019-05-21T01:14:14.202Z,14.20
2019-05-21T01:15:13.998Z,14.18
2019-05-21T01:16:14.004Z,14.20
2019-05-21T01:17:13.974Z,14.19
2019-05-21T01:18:13.960Z,14.19
2019-05-21T01:19:15.812Z,14.22
2019-05-21T01:20:13.941Z,14.25
2019-05-21T01:21:13.927Z,14.28
2019-05-21T01:22:13.912Z,14.28
2019-05-21T01:23:14.839Z,14.30
2019-05-21T01:24:13.941Z,14.31
2019-05-21T01:25:13.906Z,14.23
2019-05-21T01:26:14.649Z,14.23
2019-05-21T01:27:13.851Z,14.31
2019-05-21T01:28:15.330Z,14.33
2019-05-21T01:29:13.806Z,14.26
2019-05-21T01:30:13.829Z,14.22
2019-05-21T01:32:57.410Z,14.12
2019-05-21T01:33:56.645Z,14.13
2019-05-21T01:34:57.844Z,14.16
2019-05-21T01:35:56.477Z,14.19
2019-05-21T01:36:57.513Z,14.18
2019-05-21T01:41:59.476Z,14.28
2019-05-21T01:42:53.466Z,14.20
2019-05-21T01:43:54.032Z,14.19
2019-05-21T01:46:59.800Z,14.15
2019-05-21T01:47:40.265Z,14.12
2019-05-21T01:48:40.440Z,14.13
2019-05-21T01:49:40.251Z,14.13
2019-05-21T01:50:39.805Z,14.19
2019-05-21T01:51:43.303Z,14.19
2019-05-21T01:52:41.367Z,14.15
2019-05-21T01:53:40.970Z,14.16
2019-05-21T01:54:39.642Z,14.13
2019-05-21T02:00:01.575Z,14.19
2019-05-21T02:01:01.614Z,14.12
2019-05-21T02:02:00.422Z,14.11
2019-05-21T02:03:00.437Z,14.12
2019-05-21T02:04:01.897Z,14.08
2019-05-21T02:05:00.931Z,14.07
2019-05-21T02:06:00.441Z,14.07
2019-05-21T02:06:59.296Z,14.08
2019-05-21T02:07:59.270Z,14.05
2019-05-21T02:08:59.271Z,14.11
2019-05-21T02:10:01.000Z,14.12
2019-05-21T02:10:59.225Z,14.12
2019-05-21T02:11:59.226Z,14.11
2019-05-21T02:12:59.334Z,14.08
2019-05-21T02:13:59.222Z,14.08
2019-05-21T02:14:59.340Z,14.11
2019-05-21T02:15:59.176Z,14.07
2019-05-21T02:16:59.142Z,14.05
2019-05-21T02:17:59.143Z,14.05
2019-05-21T02:18:59.247Z,14.03
2019-05-21T02:19:59.103Z,14.05
2019-05-21T02:21:01.001Z,14.03
2019-05-21T02:21:59.074Z,14.01
2019-05-21T02:22:59.072Z,14.04
2019-05-21T02:23:59.062Z,14.01
2019-05-21T02:24:59.055Z,14.01
2019-05-21T02:25:59.075Z,14.00
2019-05-21T02:26:59.011Z,14.01
2019-05-21T02:27:59.017Z,14.00
2019-05-21T02:28:58.974Z,14.04
2019-05-21T02:29:58.969Z,14.05
2019-05-21T02:31:00.550Z,14.07
2019-05-21T02:31:58.933Z,14.00
2019-05-21T02:32:58.928Z,14.01
2019-05-21T02:33:59.547Z,13.97
2019-05-21T02:34:58.900Z,13.98
2019-05-21T02:35:58.919Z,13.98
2019-05-21T02:36:59.294Z,13.98
2019-05-21T02:37:58.847Z,13.97
2019-05-21T02:38:58.835Z,13.93
2019-05-21T02:39:58.831Z,13.91
2019-05-21T02:40:58.805Z,13.91
2019-05-21T02:41:58.810Z,13.87
2019-05-21T02:42:58.780Z,13.91
2019-05-21T02:43:58.880Z,13.89
2019-05-21T02:44:58.936Z,13.86
2019-05-21T02:45:59.931Z,13.87
2019-05-21T02:46:58.755Z,13.87
2019-05-21T02:48:20.540Z,13.87
2019-05-21T02:48:59.509Z,13.89
2019-05-21T02:50:19.699Z,13.89
2019-05-21T02:50:58.683Z,13.91
2019-05-21T02:51:58.660Z,13.85
2019-05-21T02:52:58.672Z,13.82
2019-05-21T02:53:58.708Z,13.85
2019-05-21T02:54:58.616Z,13.82
2019-05-21T02:55:58.672Z,13.82
2019-05-21T02:57:01.493Z,13.80
2019-05-21T02:57:58.583Z,13.79
2019-05-21T02:58:58.592Z,13.75
2019-05-21T02:59:58.545Z,13.71
2019-05-21T03:00:58.521Z,13.71
2019-05-21T03:01:58.523Z,13.71
2019-05-21T03:02:58.507Z,13.71
2019-05-21T03:03:58.734Z,13.71
2019-05-21T03:04:58.493Z,13.67
2019-05-21T03:06:13.136Z,13.62
2019-05-21T03:06:58.575Z,13.65
2019-05-21T03:07:58.416Z,13.65
2019-05-21T03:08:58.448Z,13.64
2019-05-21T03:09:59.021Z,13.61
2019-05-21T03:10:58.377Z,13.65
2019-05-21T03:11:58.598Z,13.65
2019-05-21T03:12:58.363Z,13.68
2019-05-21T03:13:58.358Z,13.71
2019-05-21T03:14:59.023Z,13.68
2019-05-21T03:15:58.315Z,13.70
2019-05-21T03:16:58.310Z,13.65
2019-05-21T03:18:00.043Z,13.67
2019-05-21T03:18:58.324Z,13.68
2019-05-21T03:20:01.039Z,13.61
2019-05-21T03:20:58.258Z,13.58
2019-05-21T03:21:59.038Z,13.62
2019-05-21T03:22:58.220Z,13.60
2019-05-21T03:23:58.397Z,13.58
2019-05-21T03:25:02.119Z,13.57
2019-05-21T03:25:58.232Z,13.54
2019-05-21T03:27:19.240Z,13.52
2019-05-21T03:27:58.145Z,13.55
2019-05-21T03:28:58.220Z,13.55
2019-05-21T03:29:58.202Z,13.57
2019-05-21T03:31:08.898Z,13.58
2019-05-21T03:31:59.505Z,13.61
2019-05-21T03:33:00.941Z,13.57
2019-05-21T03:34:02.438Z,13.54
2019-05-21T03:34:59.922Z,13.55
2019-05-21T03:35:58.179Z,13.57
2019-05-21T03:49:15.486Z,13.55
2019-05-21T03:50:08.038Z,13.55
2019-05-21T03:52:58.192Z,13.60
2019-05-21T03:56:17.033Z,13.60
2019-05-21T03:58:51.418Z,13.67
2019-05-21T03:59:42.127Z,13.68
2019-05-21T04:00:40.701Z,13.68
2019-05-21T04:09:14.077Z,13.50
2019-05-21T04:09:48.998Z,13.49
2019-05-21T04:10:57.520Z,13.46
2019-05-21T04:11:53.023Z,13.47
2019-05-21T04:12:47.996Z,13.46
2019-05-21T04:13:48.000Z,13.43
2019-05-21T04:14:49.827Z,13.45
2019-05-21T04:15:48.229Z,13.49
2019-05-21T04:16:49.436Z,13.45
2019-05-21T04:17:47.802Z,13.47
2019-05-21T04:18:47.805Z,13.52
2019-05-21T04:19:47.781Z,13.46
2019-05-21T04:20:49.474Z,13.46
2019-05-21T04:21:47.955Z,13.40
2019-05-21T04:22:47.737Z,13.43
2019-05-21T04:23:47.802Z,13.45
2019-05-21T04:24:47.757Z,13.45
2019-05-21T04:25:47.696Z,13.47
2019-05-21T04:26:47.715Z,13.52
2019-05-21T04:27:47.679Z,13.57
2019-05-21T04:28:47.649Z,13.52
2019-05-21T04:29:47.647Z,13.58
2019-05-21T04:30:47.627Z,13.55
2019-05-21T04:31:47.606Z,13.60
2019-05-21T04:32:47.625Z,13.64
2019-05-21T04:33:47.582Z,13.65
2019-05-21T04:34:47.568Z,13.64
2019-05-21T04:35:47.545Z,13.64
2019-05-21T04:36:47.531Z,13.64
2019-05-21T04:37:47.538Z,13.67
2019-05-21T04:38:47.497Z,13.67
2019-05-21T04:39:47.493Z,13.68
2019-05-21T04:40:47.474Z,13.65
2019-05-21T04:41:47.463Z,13.60
2019-05-21T04:42:47.477Z,13.57
2019-05-21T04:43:47.443Z,13.60
2019-05-21T04:44:47.429Z,13.61
2019-05-21T04:45:47.409Z,13.60
2019-05-21T04:46:47.399Z,13.58
2019-05-21T04:47:47.442Z,13.58
2019-05-21T04:48:47.367Z,13.57
2019-05-21T04:49:47.349Z,13.57
2019-05-21T04:50:47.331Z,13.60
2019-05-21T04:51:47.321Z,13.60
2019-05-21T04:52:47.302Z,13.57
2019-05-21T04:53:47.326Z,13.54
2019-05-21T04:54:47.286Z,13.49
2019-05-21T04:55:47.300Z,13.50
2019-05-21T04:56:47.253Z,13.47
2019-05-21T04:57:47.237Z,13.50
2019-05-21T04:58:47.290Z,13.54
2019-05-21T04:59:48.967Z,13.54
2019-05-21T05:00:47.198Z,13.54
2019-05-21T05:01:47.177Z,13.54
2019-05-21T05:02:47.164Z,13.54
2019-05-21T05:03:47.153Z,13.45
2019-05-21T05:04:48.446Z,13.39
2019-05-21T05:05:47.122Z,13.39
2019-05-21T05:06:47.140Z,13.40
2019-05-21T05:07:47.107Z,13.43
2019-05-21T05:08:47.142Z,13.47
2019-05-21T05:09:48.058Z,13.47
2019-05-21T05:10:49.266Z,13.50
2019-05-21T05:11:47.946Z,13.55
2019-05-21T05:12:47.028Z,13.55
2019-05-21T05:13:47.039Z,13.55
2019-05-21T05:14:47.085Z,13.57
2019-05-21T05:15:46.981Z,13.57
2019-05-21T05:16:46.957Z,13.55
2019-05-21T05:17:46.948Z,13.54
2019-05-21T05:18:48.297Z,13.54
2019-05-21T05:19:55.530Z,13.55
2019-05-21T05:20:46.991Z,13.55
2019-05-21T05:21:46.955Z,13.57
2019-05-21T05:22:46.881Z,13.57
2019-05-21T05:23:46.899Z,13.57
2019-05-21T05:24:46.896Z,13.57
2019-05-21T05:25:46.849Z,13.58
2019-05-21T05:26:46.858Z,13.61
2019-05-21T05:27:47.376Z,13.57
2019-05-21T05:29:11.897Z,13.58
2019-05-21T05:29:48.931Z,13.55
2019-05-21T05:30:47.498Z,13.54
2019-05-21T05:31:47.659Z,13.52
2019-05-21T05:32:46.873Z,13.52
2019-05-21T05:33:48.280Z,13.58
2019-05-21T05:34:48.038Z,13.57
2019-05-21T05:35:48.497Z,13.57
2019-05-21T05:36:46.703Z,13.57
2019-05-21T05:37:48.869Z,13.55
2019-05-21T05:38:46.658Z,13.57
2019-05-21T05:39:48.004Z,13.55
2019-05-21T05:40:47.482Z,13.54
2019-05-21T05:41:46.871Z,13.52
2019-05-21T05:42:48.604Z,13.54
2019-05-21T05:43:50.083Z,13.57
2019-05-21T05:44:46.590Z,13.57
2019-05-21T05:45:46.548Z,13.60
2019-05-21T05:46:47.032Z,13.60
2019-05-21T05:47:47.533Z,13.62
2019-05-21T05:51:33.053Z,13.58
2019-05-21T05:52:32.862Z,13.61
2019-05-21T05:53:44.600Z,13.62
2019-05-21T05:58:40.888Z,13.61
2019-05-21T06:02:58.979Z,13.62
2019-05-21T06:04:16.320Z,13.67
2019-05-21T06:04:48.835Z,13.68
2019-05-21T06:05:49.308Z,13.70
2019-05-21T06:06:51.041Z,13.68
2019-05-21T06:08:00.464Z,13.68
2019-05-21T06:08:48.930Z,13.71
2019-05-21T06:09:48.465Z,13.71
2019-05-21T06:11:05.141Z,13.71
2019-05-21T06:12:03.887Z,13.75
2019-05-21T06:12:50.182Z,13.76
2019-05-21T06:13:48.624Z,13.76
2019-05-21T06:14:47.507Z,13.71
2019-05-21T06:15:47.885Z,13.73
2019-05-21T06:16:47.774Z,13.67
2019-05-21T06:17:58.115Z,13.67
2019-05-21T06:18:48.719Z,13.67
2019-05-21T06:19:49.007Z,13.61
2019-05-21T06:20:49.317Z,13.64
2019-05-21T06:21:50.787Z,13.65
2019-05-21T06:22:48.998Z,13.65
2019-05-21T06:23:47.558Z,13.65
2019-05-21T06:24:47.545Z,13.67
2019-05-21T06:25:57.540Z,13.65
2019-05-21T06:26:50.731Z,13.68
2019-05-21T06:27:47.841Z,13.75
2019-05-21T06:29:00.857Z,13.79
2019-05-21T06:31:22.250Z,13.83
2019-05-21T06:32:21.961Z,13.83
2019-05-21T06:33:20.674Z,13.83
2019-05-21T06:34:20.681Z,13.82
2019-05-21T06:35:21.658Z,13.82
2019-05-21T06:36:21.544Z,13.83
2019-05-21T06:37:20.291Z,13.86
2019-05-21T06:38:20.646Z,13.87
2019-05-21T06:39:20.162Z,13.85
2019-05-21T06:40:20.484Z,13.82
2019-05-21T06:41:20.189Z,13.80
2019-05-21T06:42:20.331Z,13.82
2019-05-21T06:43:20.172Z,13.82
2019-05-21T06:44:20.104Z,13.83
2019-05-21T06:45:20.083Z,13.83
2019-05-21T06:46:20.057Z,13.85
2019-05-21T06:47:20.042Z,13.86
2019-05-21T06:48:20.043Z,13.89
2019-05-21T06:49:24.448Z,13.93
2019-05-21T06:50:20.062Z,13.94
2019-05-21T06:51:20.061Z,13.94
2019-05-21T06:52:30.861Z,13.93
2019-05-21T06:53:20.984Z,13.91
2019-05-21T06:54:21.850Z,13.91
2019-05-21T06:55:38.378Z,13.91
2019-05-21T06:58:27.600Z,13.86
2019-05-21T07:01:52.353Z,13.87
2019-05-21T07:02:27.892Z,13.83
2019-05-21T07:08:40.616Z,13.83
2019-05-21T07:09:29.534Z,13.83
2019-05-21T07:12:31.820Z,13.87
2019-05-21T07:13:31.350Z,13.89
2019-05-21T07:14:32.522Z,13.91
2019-05-21T07:15:31.224Z,13.93
2019-05-21T07:16:31.253Z,13.91
2019-05-21T07:17:30.452Z,13.89
2019-05-21T07:18:34.040Z,13.89
2019-05-21T07:19:31.146Z,13.89
2019-05-21T07:20:30.170Z,13.93
2019-05-21T07:21:30.391Z,13.86
2019-05-21T07:22:30.174Z,13.80
2019-05-21T07:23:30.122Z,13.71
2019-05-21T07:24:30.180Z,13.73
2019-05-21T07:25:30.625Z,13.71
2019-05-21T07:26:30.059Z,13.75
2019-05-21T07:27:32.636Z,13.75
2019-05-21T07:28:41.002Z,13.79
2019-05-21T07:35:44.941Z,13.91
2019-05-21T07:36:44.293Z,13.93
2019-05-21T07:37:43.606Z,13.93
2019-05-21T07:38:53.060Z,13.95
2019-05-21T07:39:46.753Z,13.97
2019-05-21T07:40:45.757Z,14.00
2019-05-21T07:41:43.386Z,13.95
2019-05-21T07:42:43.242Z,13.98
2019-05-21T07:43:43.395Z,14.01
2019-05-21T07:44:43.220Z,14.04
2019-05-21T07:45:43.209Z,14.07
2019-05-21T07:46:43.217Z,14.12
2019-05-21T07:47:43.181Z,14.08
2019-05-21T07:48:43.265Z,14.12
2019-05-21T07:49:43.152Z,14.12
2019-05-21T07:53:38.931Z,14.03
2019-05-21T07:54:39.942Z,13.98
2019-05-21T07:55:38.824Z,13.98
2019-05-21T07:56:39.120Z,13.95
2019-05-21T07:57:41.482Z,13.95
2019-05-21T07:58:55.228Z,13.97
2019-05-21T08:01:37.241Z,13.98
2019-05-21T08:04:39.732Z,13.98
2019-05-21T08:05:35.237Z,13.97
2019-05-21T08:06:47.849Z,13.95
2019-05-21T08:07:34.146Z,13.97
2019-05-21T08:08:31.045Z,13.98
2019-05-21T08:09:30.773Z,13.93
2019-05-21T08:10:30.382Z,13.93
2019-05-21T08:11:32.186Z,13.93
2019-05-21T08:12:38.691Z,13.94
2019-05-21T08:13:30.336Z,13.95
2019-05-21T08:14:30.418Z,14.00
2019-05-21T08:15:30.284Z,14.04
2019-05-21T08:16:30.282Z,14.03
2019-05-21T08:17:30.289Z,14.07
2019-05-21T08:18:30.249Z,14.03
2019-05-21T08:19:31.287Z,14.00
2019-05-21T08:20:30.217Z,14.01
2019-05-21T08:21:30.264Z,14.04
2019-05-21T08:22:31.928Z,14.05
2019-05-21T08:23:30.167Z,14.08
2019-05-21T08:24:30.165Z,14.08
2019-05-21T08:25:30.214Z,14.07
2019-05-21T08:26:30.129Z,14.08
2019-05-21T08:27:30.126Z,14.08
2019-05-21T08:28:30.102Z,14.04
2019-05-21T08:29:30.127Z,14.07
2019-05-21T08:30:30.777Z,14.01
2019-05-21T08:31:30.070Z,14.04
2019-05-21T08:32:30.059Z,14.01
2019-05-21T08:33:30.836Z,14.05
2019-05-21T08:34:30.040Z,14.08
2019-05-21T08:35:29.997Z,14.11
2019-05-21T08:36:29.998Z,14.11
2019-05-21T08:37:29.969Z,14.07
2019-05-21T08:38:30.003Z,14.08
2019-05-21T08:39:30.008Z,14.08
2019-05-21T08:40:29.959Z,14.12
2019-05-21T08:41:29.931Z,14.12
2019-05-21T08:42:29.918Z,14.05
2019-05-21T08:43:29.959Z,14.07
2019-05-21T08:44:29.897Z,14.05
2019-05-21T08:45:29.858Z,14.07
2019-05-21T08:46:29.969Z,14.04
2019-05-21T08:47:29.883Z,14.05
2019-05-21T08:48:29.831Z,14.12
2019-05-21T08:49:32.303Z,14.18
2019-05-21T08:50:29.834Z,14.23
2019-05-21T08:51:29.805Z,14.26
2019-05-21T08:52:29.778Z,14.19
2019-05-21T08:53:29.804Z,14.18
2019-05-21T08:54:29.785Z,14.16
2019-05-21T08:55:29.749Z,14.15
2019-05-21T08:56:29.777Z,14.18
2019-05-21T08:57:34.368Z,14.19
2019-05-21T08:58:29.691Z,14.20
2019-05-21T08:59:29.854Z,14.23
2019-05-21T09:00:29.652Z,14.22
2019-05-21T09:01:29.678Z,14.22
2019-05-21T09:02:31.294Z,14.20
2019-05-21T09:03:29.630Z,14.25
2019-05-21T09:04:45.275Z,14.26
2019-05-21T09:05:29.605Z,14.30
2019-05-21T09:06:29.714Z,14.34
2019-05-21T09:07:30.384Z,14.34
2019-05-21T09:08:29.556Z,14.36
2019-05-21T09:09:48.283Z,14.36
2019-05-21T09:10:32.284Z,14.38
2019-05-21T09:11:29.507Z,14.36
2019-05-21T09:12:31.297Z,14.33
2019-05-21T09:13:29.525Z,14.37
2019-05-21T09:34:48.822Z,14.58
2019-05-21T09:43:53.037Z,14.55
2019-05-21T09:44:41.851Z,14.52
2019-05-21T09:45:42.051Z,14.53
2019-05-21T09:46:42.126Z,14.58
2019-05-21T09:47:40.696Z,14.62
2019-05-21T09:48:40.276Z,14.66
2019-05-21T09:49:40.879Z,14.67
2019-05-21T09:50:40.244Z,14.70
2019-05-21T09:51:40.185Z,14.67
2019-05-21T09:52:40.186Z,14.67
2019-05-21T09:53:40.126Z,14.66
2019-05-21T09:54:44.678Z,14.66
2019-05-21T09:55:40.204Z,14.58
2019-05-21T09:56:42.644Z,14.52
2019-05-21T09:57:40.081Z,14.51
2019-05-21T09:58:40.306Z,14.49
2019-05-21T09:59:40.073Z,14.53
2019-05-21T10:00:40.040Z,14.52
2019-05-21T10:01:40.164Z,14.51
2019-05-21T10:02:40.113Z,14.53
2019-05-21T10:03:40.000Z,14.49
2019-05-21T10:04:39.998Z,14.45
2019-05-21T10:05:39.972Z,14.43
2019-05-21T10:06:41.667Z,14.45
2019-05-21T10:07:40.768Z,14.49
2019-05-21T10:08:39.919Z,14.53
2019-05-21T10:09:39.935Z,14.52
2019-05-21T10:10:39.904Z,14.52
2019-05-21T10:11:39.884Z,14.55
2019-05-21T10:12:39.922Z,14.56
2019-05-21T10:13:39.867Z,14.55
2019-05-21T10:14:39.866Z,14.55
2019-05-21T10:15:39.835Z,14.52
2019-05-21T10:16:39.827Z,14.52
2019-05-21T10:17:49.281Z,14.52
2019-05-21T10:18:42.331Z,14.45
2019-05-21T10:19:41.363Z,14.48
2019-05-21T10:20:42.081Z,14.45
2019-05-21T10:21:40.258Z,14.48
2019-05-21T10:22:39.847Z,14.41
2019-05-21T10:23:41.577Z,14.41
2019-05-21T10:24:39.730Z,14.38
2019-05-21T10:25:39.970Z,14.37
2019-05-21T10:26:39.688Z,14.36
2019-05-21T10:27:39.708Z,14.40
2019-05-21T10:28:39.655Z,14.40
2019-05-21T10:29:41.392Z,14.36
2019-05-21T10:30:40.356Z,14.28
2019-05-21T10:31:51.623Z,14.26
2019-05-21T10:32:43.595Z,14.25
2019-05-21T10:33:39.590Z,14.23
2019-05-21T10:34:39.726Z,14.25
2019-05-21T10:35:39.570Z,14.25
2019-05-21T10:36:39.558Z,14.31
2019-05-21T10:37:52.626Z,14.34
2019-05-21T10:38:39.526Z,14.31
2019-05-21T11:33:47.029Z,13.70
2019-05-21T11:34:26.474Z,13.70
2019-05-21T11:35:27.966Z,13.68
2019-05-21T11:36:26.419Z,13.70
2019-05-21T11:37:26.382Z,13.73
2019-05-21T11:38:39.038Z,13.73
2019-05-21T11:39:26.358Z,13.62
2019-05-21T11:40:26.385Z,13.64
2019-05-21T11:41:26.394Z,13.62
2019-05-21T11:42:26.352Z,13.67
2019-05-21T11:43:26.294Z,13.64
2019-05-21T11:44:26.294Z,13.64
2019-05-21T11:45:32.313Z,13.64
2019-05-21T11:46:26.273Z,13.67
2019-05-21T11:52:22.969Z,13.68
2019-05-21T11:53:12.968Z,13.67
2019-05-21T11:54:12.970Z,13.67
2019-05-21T11:55:11.971Z,13.64
2019-05-21T11:58:39.795Z,13.62
2019-05-21T11:59:37.954Z,13.58
2019-05-21T12:00:37.345Z,13.58
2019-05-21T12:01:37.955Z,13.57
2019-05-21T12:02:37.503Z,13.57
2019-05-21T12:03:36.082Z,13.55
2019-05-21T12:04:36.017Z,13.55
2019-05-21T12:05:35.997Z,13.54
2019-05-21T12:06:35.989Z,13.55
2019-05-21T12:07:35.983Z,13.55
2019-05-21T12:08:35.982Z,13.55
2019-05-21T12:09:35.935Z,13.57
2019-05-21T12:10:35.928Z,13.54
2019-05-21T12:11:58.055Z,13.49
2019-05-21T12:12:35.892Z,13.50
2019-05-21T12:13:35.903Z,13.54
2019-05-21T12:14:35.880Z,13.58
2019-05-21T12:15:35.860Z,13.54
2019-05-21T12:16:35.839Z,13.52
2019-05-21T12:17:35.826Z,13.54
2019-05-21T12:18:35.835Z,13.55
2019-05-21T12:19:36.086Z,13.54
2019-05-21T12:20:37.524Z,13.55
2019-05-21T12:21:35.768Z,13.52
2019-05-21T12:22:35.757Z,13.50
2019-05-21T12:23:35.762Z,13.55
2019-05-21T12:24:35.718Z,13.55
2019-05-21T12:25:35.722Z,13.55
2019-05-21T12:26:35.690Z,13.57
2019-05-21T12:27:35.706Z,13.60
2019-05-21T12:28:35.688Z,13.55
2019-05-21T12:29:35.649Z,13.57
2019-05-21T12:30:35.652Z,13.57
2019-05-21T12:31:36.572Z,13.54
2019-05-21T12:32:35.633Z,13.52
2019-05-21T12:33:36.578Z,13.52
2019-05-21T12:34:38.735Z,13.54
2019-05-21T12:39:40.984Z,13.49
2019-05-21T12:40:17.457Z,13.52
2019-05-21T12:41:17.629Z,13.52
2019-05-21T12:42:17.383Z,13.49
2019-05-21T12:43:17.362Z,13.49
2019-05-21T12:44:17.366Z,13.49
2019-05-21T12:45:17.375Z,13.50
2019-05-21T12:46:17.359Z,13.47
2019-05-21T12:47:26.842Z,13.45
2019-05-21T12:48:18.142Z,13.43
2019-05-21T12:49:17.393Z,13.45
2019-05-21T12:50:17.342Z,13.45
2019-05-21T12:51:17.380Z,13.46
2019-05-21T12:52:17.420Z,13.46
2019-05-21T12:53:17.668Z,13.49
2019-05-21T12:54:17.282Z,13.50
2019-05-21T12:55:17.241Z,13.52
2019-05-21T12:56:17.169Z,13.50
2019-05-21T12:57:17.385Z,13.54
2019-05-21T12:58:17.154Z,13.57
2019-05-21T12:59:17.145Z,13.61
2019-05-21T13:00:17.123Z,13.61
2019-05-21T13:01:18.129Z,13.62
2019-05-21T13:02:24.386Z,13.64
2019-05-21T13:03:24.747Z,13.58
2019-05-21T13:04:17.049Z,13.55
2019-05-21T13:05:17.908Z,13.52
2019-05-21T13:06:17.031Z,13.52
2019-05-21T13:07:17.069Z,13.52
2019-05-21T13:08:16.987Z,13.55
2019-05-21T13:09:31.290Z,13.55
2019-05-21T13:10:17.890Z,13.58
2019-05-21T13:11:16.945Z,13.54
2019-05-21T13:12:16.938Z,13.54
2019-05-21T13:13:27.919Z,13.58
2019-05-21T13:14:18.850Z,13.57
2019-05-21T13:15:16.939Z,13.50
2019-05-21T13:16:17.003Z,13.50
2019-05-21T13:17:17.696Z,13.50
2019-05-21T13:18:16.857Z,13.50
2019-05-21T13:19:16.943Z,13.49
2019-05-21T13:20:16.959Z,13.49
2019-05-21T13:21:17.389Z,13.50
2019-05-21T13:22:16.793Z,13.50
2019-05-21T13:23:18.405Z,13.50
2019-05-21T13:24:16.780Z,13.46
2019-05-21T13:25:17.413Z,13.47
2019-05-21T13:26:16.740Z,13.47
2019-05-21T13:27:16.723Z,13.49
2019-05-21T13:28:16.709Z,13.49
2019-05-21T13:29:16.744Z,13.47
2019-05-21T13:30:24.743Z,13.46
2019-05-21T13:31:16.657Z,13.47
2019-05-21T13:32:16.656Z,13.50
2019-05-21T13:33:19.430Z,13.54
2019-05-21T13:34:17.625Z,13.60
2019-05-21T13:36:53.513Z,13.70
2019-05-21T13:37:53.452Z,13.73
2019-05-21T13:38:53.459Z,13.80
2019-05-21T13:39:53.433Z,13.89
2019-05-21T13:40:53.439Z,13.93
2019-05-21T13:41:53.417Z,13.98
2019-05-21T13:42:53.393Z,14.05
2019-05-21T13:43:53.385Z,14.12
2019-05-21T13:44:53.363Z,14.12
2019-05-21T13:45:53.364Z,14.12
2019-05-21T13:46:53.338Z,14.12
2019-05-21T13:47:53.309Z,14.12
2019-05-21T13:48:53.320Z,14.15
2019-05-21T13:49:53.307Z,14.15
2019-05-21T13:50:53.325Z,14.15
2019-05-21T13:51:53.266Z,14.18
2019-05-21T13:52:53.249Z,14.22
2019-05-21T13:53:53.250Z,14.23
2019-05-21T13:54:53.222Z,14.26
2019-05-21T13:55:53.262Z,14.31
2019-05-21T13:56:53.205Z,14.34
2019-05-21T13:57:53.191Z,14.37
2019-05-21T13:58:53.228Z,14.43
2019-05-21T13:59:53.161Z,14.48
2019-05-21T14:00:53.138Z,14.52
2019-05-21T14:01:53.155Z,14.56
2019-05-21T14:02:53.123Z,14.61
2019-05-21T14:03:53.103Z,14.66
2019-05-21T14:04:54.307Z,14.71
2019-05-21T14:05:53.234Z,14.79
2019-05-21T14:06:53.109Z,14.89
2019-05-21T14:07:53.097Z,14.94
2019-05-21T14:08:53.035Z,15.02
2019-05-21T14:10:12.670Z,14.96
2019-05-21T14:10:53.007Z,14.92
2019-05-21T14:11:53.015Z,14.94
2019-05-21T14:12:53.026Z,14.94
2019-05-21T14:13:52.993Z,14.94
2019-05-21T14:14:52.998Z,14.96
2019-05-21T14:15:52.950Z,14.94
2019-05-21T14:16:53.069Z,14.93
2019-05-21T14:17:52.911Z,14.92
2019-05-21T14:18:52.918Z,14.89
2019-05-21T14:19:52.890Z,14.89
2019-05-21T14:20:52.886Z,14.93
2019-05-21T14:21:52.879Z,14.97
2019-05-21T14:22:52.911Z,14.99
2019-05-21T14:23:52.846Z,14.96
2019-05-21T14:24:52.830Z,14.94
2019-05-21T14:25:52.817Z,14.96
2019-05-21T14:26:52.807Z,14.96
2019-05-21T14:27:52.949Z,14.96
2019-05-21T14:28:52.790Z,14.97
2019-05-21T14:29:52.760Z,14.94
2019-05-21T14:30:52.762Z,14.99
2019-05-21T14:31:52.724Z,14.96
2019-05-21T14:32:53.164Z,14.97
2019-05-21T14:33:53.481Z,14.99
2019-05-21T14:35:01.255Z,14.97
2019-05-21T14:35:52.680Z,15.00
2019-05-21T14:36:52.655Z,14.97
2019-05-21T14:37:52.713Z,14.96
2019-05-21T14:38:52.744Z,14.93
2019-05-21T14:39:52.715Z,14.90
2019-05-21T14:40:52.616Z,14.87
2019-05-21T14:41:52.599Z,14.92
2019-05-21T14:42:59.951Z,14.96
2019-05-21T14:43:52.591Z,14.96
2019-05-21T14:44:52.560Z,14.96
2019-05-21T14:45:52.627Z,14.99
2019-05-21T14:46:52.528Z,15.00
2019-05-21T14:47:52.526Z,15.05
2019-05-21T14:48:52.587Z,15.07
2019-05-21T14:49:52.492Z,15.02
2019-05-21T14:50:52.615Z,14.99
2019-05-21T14:51:52.475Z,15.00
2019-05-21T14:52:52.552Z,14.96
2019-05-21T14:53:52.590Z,15.00
2019-05-21T14:54:52.428Z,15.05
2019-05-21T14:55:52.410Z,15.07
2019-05-21T14:56:52.409Z,15.07
2019-05-21T14:57:52.391Z,15.07
2019-05-21T14:58:54.112Z,15.05
2019-05-21T14:59:52.397Z,15.08
2019-05-21T15:00:52.377Z,15.07
2019-05-21T15:01:52.341Z,15.12
2019-05-21T15:02:52.326Z,15.14
2019-05-21T15:03:52.385Z,15.08
2019-05-21T15:04:52.553Z,15.08
2019-05-21T15:05:52.284Z,15.08
2019-05-21T15:06:52.563Z,15.07
2019-05-21T15:07:52.273Z,15.07
2019-05-21T15:08:52.262Z,15.08
2019-05-21T15:09:53.548Z,15.08
2019-05-21T15:10:52.577Z,15.08
2019-05-21T15:11:52.216Z,15.07
2019-05-21T15:13:00.223Z,15.05
2019-05-21T15:13:52.254Z,15.05
2019-05-21T15:14:52.181Z,15.05
2019-05-21T15:15:52.179Z,15.08
2019-05-21T15:16:52.132Z,15.08
2019-05-21T15:17:52.138Z,15.14
2019-05-21T15:18:52.129Z,15.12
2019-05-21T15:19:52.123Z,15.14
2019-05-21T15:20:52.176Z,15.18
2019-05-21T15:21:52.069Z,15.18
2019-05-21T15:22:52.071Z,15.17
2019-05-21T15:23:52.560Z,15.15
2019-05-21T15:24:52.031Z,15.15
2019-05-21T15:25:52.046Z,15.17
2019-05-21T15:26:52.034Z,15.14
2019-05-21T15:27:51.991Z,15.14
2019-05-21T15:28:51.975Z,15.14
2019-05-21T15:29:51.959Z,15.15
2019-05-21T15:30:51.977Z,15.17
2019-05-21T15:31:51.935Z,15.22
2019-05-21T15:32:52.066Z,15.22
2019-05-21T15:33:51.916Z,15.22
2019-05-21T15:34:53.726Z,15.23
2019-05-21T15:35:51.884Z,15.25
2019-05-21T15:36:51.879Z,15.25
2019-05-21T15:37:51.853Z,15.25
2019-05-21T15:38:51.878Z,15.26
2019-05-21T15:39:51.832Z,15.27
2019-05-21T15:41:08.823Z,15.29